createdAt,value
2018-10-01T00:00:45.204Z,83.84
2018-10-01T00:03:14.522Z,83.75
2018-10-01T00:05:43.555Z,83.58
2018-10-01T00:08:12.879Z,83.66
2018-10-01T00:10:42.027Z,84.21
2018-10-01T00:13:11.407Z,84.25
2018-10-01T00:15:40.820Z,84.44
2018-10-01T00:18:09.976Z,84.22
2018-10-01T00:20:44.050Z,84.53
2018-10-01T00:23:13.171Z,84.21
2018-10-01T00:25:42.323Z,83.31
2018-10-01T00:28:11.511Z,83.65
2018-10-01T00:30:40.856Z,84.05
2018-10-01T00:33:09.992Z,83.81
2018-10-01T00:35:39.412Z,83.32
2018-10-01T00:38:08.757Z,83.99
2018-10-01T00:40:38.024Z,83.63
2018-10-01T00:43:07.302Z,83.58
2018-10-01T00:45:36.568Z,83.53
2018-10-01T00:48:05.948Z,83.71
2018-10-01T00:50:35.264Z,84.37
2018-10-01T00:53:04.491Z,84.04
2018-10-01T00:55:33.716Z,83.72
2018-10-01T00:58:03.092Z,84.06
2018-10-01T01:00:32.316Z,83.40
2018-10-01T01:03:01.605Z,83.74
2018-10-01T01:05:30.899Z,84.23
2018-10-01T01:08:00.292Z,83.72
2018-10-01T01:10:29.615Z,83.56
2018-10-01T01:12:58.873Z,83.95
2018-10-01T01:15:28.097Z,83.51
2018-10-01T01:17:57.227Z,84.63
2018-10-01T01:20:26.448Z,84.33
2018-10-01T01:22:55.687Z,83.54
2018-10-01T01:25:24.477Z,83.93
2018-10-01T01:27:53.720Z,84.39
2018-10-01T01:30:22.974Z,84.01
2018-10-01T01:32:52.424Z,84.77
2018-10-01T01:35:21.662Z,84.98
2018-10-01T01:37:51.079Z,84.63
2018-10-01T01:40:20.088Z,85.50
2018-10-01T01:42:49.131Z,84.98
2018-10-01T01:45:18.335Z,85.87
2018-10-01T01:47:47.546Z,86.01
2018-10-01T01:50:16.788Z,85.14
2018-10-01T01:52:46.084Z,85.80
2018-10-01T01:55:15.343Z,85.40
2018-10-01T01:57:44.322Z,85.06
2018-10-01T02:00:13.578Z,85.36
2018-10-01T02:02:42.727Z,85.48
2018-10-01T02:05:11.984Z,85.29
2018-10-01T02:07:41.147Z,85.66
2018-10-01T02:10:10.231Z,85.95
2018-10-01T02:12:39.075Z,86.07
2018-10-01T02:15:08.424Z,86.99
2018-10-01T02:17:37.380Z,86.40
2018-10-01T02:20:06.756Z,86.50
2018-10-01T02:22:35.999Z,87.14
2018-10-01T02:25:05.221Z,87.89
2018-10-01T02:27:34.376Z,87.26
2018-10-01T02:30:03.753Z,88.12
2018-10-01T02:32:33.020Z,87.90
2018-10-01T02:35:02.404Z,88.54
2018-10-01T02:37:31.645Z,88.68
2018-10-01T02:40:01.028Z,88.34
2018-10-01T02:42:30.076Z,88.79
2018-10-01T02:44:59.443Z,88.76
2018-10-01T02:47:28.713Z,88.64
2018-10-01T02:49:58.096Z,88.64
2018-10-01T02:52:32.504Z,88.55
2018-10-01T02:55:01.639Z,88.81
2018-10-01T02:57:30.602Z,88.82
2018-10-01T03:00:00.043Z,88.74
2018-10-01T03:02:29.339Z,88.38
2018-10-01T03:04:58.329Z,89.01
2018-10-01T03:07:27.414Z,88.42
2018-10-01T03:09:56.736Z,88.64
2018-10-01T03:12:25.914Z,88.60
2018-10-01T03:14:54.899Z,88.92
2018-10-01T03:17:24.230Z,88.65
2018-10-01T03:19:53.566Z,88.59
2018-10-01T03:22:22.861Z,88.20
2018-10-01T03:24:51.915Z,89.00
2018-10-01T03:27:20.925Z,88.90
2018-10-01T03:29:50.244Z,88.82
2018-10-01T03:32:19.406Z,88.53
2018-10-01T03:34:48.533Z,88.64
2018-10-01T03:37:17.735Z,88.55
2018-10-01T03:39:46.948Z,88.72
2018-10-01T03:42:15.972Z,88.05
2018-10-01T03:44:45.076Z,88.32
2018-10-01T03:47:14.231Z,88.27
2018-10-01T03:49:43.419Z,88.46
2018-10-01T03:52:12.387Z,88.47
2018-10-01T03:54:41.391Z,88.21
2018-10-01T03:57:11.234Z,88.06
2018-10-01T03:59:40.644Z,88.36
2018-10-01T04:02:09.823Z,87.84
2018-10-01T04:04:38.883Z,87.93
2018-10-01T04:07:08.259Z,87.29
2018-10-01T04:09:37.410Z,87.06
2018-10-01T04:12:06.751Z,87.78
2018-10-01T04:14:35.910Z,87.33
2018-10-01T04:17:05.064Z,87.31
2018-10-01T04:19:34.042Z,87.38
2018-10-01T04:22:03.092Z,86.66
2018-10-01T04:24:32.054Z,86.57
2018-10-01T04:27:01.278Z,85.70
2018-10-01T04:29:30.512Z,85.69
2018-10-01T04:31:59.519Z,85.43
2018-10-01T04:34:28.823Z,85.87
2018-10-01T04:36:58.118Z,86.22
2018-10-01T04:39:27.523Z,86.53
2018-10-01T04:41:56.796Z,86.73
2018-10-01T04:44:25.755Z,87.02
2018-10-01T04:46:54.938Z,86.26
2018-10-01T04:49:24.043Z,86.83
2018-10-01T04:51:53.351Z,86.69
2018-10-01T04:54:22.691Z,86.81
2018-10-01T04:56:51.985Z,86.71
2018-10-01T04:59:20.987Z,86.00
2018-10-01T05:01:49.917Z,85.79
2018-10-01T05:04:19.282Z,86.27
2018-10-01T05:06:48.488Z,86.03
2018-10-01T05:09:17.728Z,85.80
2018-10-01T05:11:46.973Z,86.65
2018-10-01T05:14:16.112Z,86.55
2018-10-01T05:16:45.023Z,86.90
2018-10-01T05:19:14.523Z,87.16
2018-10-01T05:21:43.676Z,87.00
2018-10-01T05:24:12.867Z,86.57
2018-10-01T05:26:41.904Z,86.91
2018-10-01T05:29:11.242Z,87.04
2018-10-01T05:31:40.504Z,86.95
2018-10-01T05:34:09.786Z,86.81
2018-10-01T05:36:39.000Z,87.13
2018-10-01T05:39:10.733Z,86.54
2018-10-01T05:41:39.748Z,86.65
2018-10-01T05:44:09.027Z,87.14
2018-10-01T05:46:38.293Z,86.74
2018-10-01T05:49:07.655Z,86.85
2018-10-01T05:51:36.921Z,86.61
2018-10-01T05:54:06.460Z,86.71
2018-10-01T05:56:35.495Z,87.02
2018-10-01T05:59:04.899Z,86.08
2018-10-01T06:01:34.143Z,85.41
2018-10-01T06:04:03.593Z,85.52
2018-10-01T06:06:32.883Z,85.24
2018-10-01T06:09:02.240Z,84.26
2018-10-01T06:11:31.547Z,84.67
2018-10-01T06:14:00.883Z,83.82
2018-10-01T06:16:30.004Z,84.33
2018-10-01T06:18:59.350Z,84.33
2018-10-01T06:21:28.487Z,84.97
2018-10-01T06:23:57.536Z,85.02
2018-10-01T06:26:26.605Z,85.01
2018-10-01T06:28:55.544Z,84.57
2018-10-01T06:31:24.544Z,85.05
2018-10-01T06:33:53.399Z,86.05
2018-10-01T06:36:22.432Z,85.93
2018-10-01T06:38:51.414Z,85.56
2018-10-01T06:41:20.371Z,85.66
2018-10-01T06:43:49.292Z,85.44
2018-10-01T06:46:18.210Z,84.68
2018-10-01T06:48:47.115Z,85.16
2018-10-01T06:51:16.057Z,85.46
2018-10-01T06:53:44.887Z,84.79
2018-10-01T06:56:13.841Z,85.70
2018-10-01T06:58:42.771Z,85.05
2018-10-01T07:01:11.702Z,85.57
2018-10-01T07:03:40.593Z,84.52
2018-10-01T07:06:09.525Z,84.17
2018-10-01T07:08:38.447Z,84.56
2018-10-01T07:11:07.465Z,84.50
2018-10-01T07:13:36.432Z,83.58
2018-10-01T07:16:05.366Z,84.02
2018-10-01T07:18:34.373Z,84.16
2018-10-01T07:21:03.283Z,83.77
2018-10-01T07:23:32.355Z,83.28
2018-10-01T07:26:01.280Z,84.19
2018-10-01T07:28:30.319Z,84.40
2018-10-01T07:30:59.237Z,83.83
2018-10-01T07:33:28.317Z,83.90
2018-10-01T07:35:57.351Z,83.51
2018-10-01T07:38:26.222Z,83.63
2018-10-01T07:40:55.139Z,83.33
2018-10-01T07:43:24.021Z,82.32
2018-10-01T07:45:53.085Z,82.81
2018-10-01T07:48:22.042Z,82.11
2018-10-01T07:50:51.092Z,81.85
2018-10-01T07:53:20.112Z,82.27
2018-10-01T07:55:49.048Z,82.34
2018-10-01T07:58:17.928Z,81.22
2018-10-01T08:00:46.922Z,80.77
2018-10-01T08:03:15.781Z,81.79
2018-10-01T08:05:44.768Z,82.00
2018-10-01T08:08:13.696Z,81.82
2018-10-01T08:10:42.584Z,82.51
2018-10-01T08:13:11.444Z,82.44
2018-10-01T08:15:40.477Z,83.02
2018-10-01T08:18:09.379Z,82.62
2018-10-01T08:20:38.394Z,81.93
2018-10-01T08:23:07.714Z,82.86
2018-10-01T08:25:36.762Z,82.44
2018-10-01T08:28:05.748Z,82.10
2018-10-01T08:30:34.748Z,81.98
2018-10-01T08:33:03.683Z,81.45
2018-10-01T08:35:32.805Z,81.39
2018-10-01T08:38:01.828Z,82.41
2018-10-01T08:40:30.777Z,83.27
2018-10-01T08:42:59.910Z,82.98
2018-10-01T08:45:28.839Z,83.00
2018-10-01T08:47:57.890Z,82.96
2018-10-01T08:50:32.438Z,81.52
2018-10-01T08:53:08.747Z,82.11
2018-10-01T08:55:37.883Z,82.38
2018-10-01T08:58:06.770Z,81.41
2018-10-01T09:00:35.663Z,81.73
2018-10-01T09:03:04.612Z,82.47
2018-10-01T09:05:33.570Z,82.44
2018-10-01T09:08:02.617Z,82.91
2018-10-01T09:10:31.543Z,83.17
2018-10-01T09:13:00.459Z,84.29
2018-10-01T09:15:29.391Z,84.27
2018-10-01T09:17:58.283Z,84.55
2018-10-01T09:20:27.264Z,85.13
2018-10-01T09:22:56.230Z,84.39
2018-10-01T09:25:25.188Z,84.15
2018-10-01T09:27:54.068Z,84.70
2018-10-01T09:30:23.072Z,83.59
2018-10-01T09:32:52.013Z,83.24
2018-10-01T09:35:20.995Z,82.57
2018-10-01T09:37:49.927Z,82.04
2018-10-01T09:40:19.002Z,81.88
2018-10-01T09:42:47.900Z,81.15
2018-10-01T09:45:16.772Z,82.14
2018-10-01T09:47:46.185Z,82.26
2018-10-01T09:50:15.632Z,82.01
2018-10-01T09:52:44.658Z,82.52
2018-10-01T09:55:13.875Z,82.93
2018-10-01T09:57:43.289Z,82.22
2018-10-01T10:00:12.379Z,82.91
2018-10-01T10:02:41.687Z,82.91
2018-10-01T10:05:10.979Z,83.43
2018-10-01T10:07:39.911Z,83.40
2018-10-01T10:10:09.416Z,82.84
2018-10-01T10:12:38.696Z,83.09
2018-10-01T10:15:08.063Z,82.68
2018-10-01T10:17:37.577Z,81.87
2018-10-01T10:20:07.056Z,82.33
2018-10-01T10:22:36.067Z,83.80
2018-10-01T10:25:05.169Z,84.69
2018-10-01T10:27:34.140Z,83.85
2018-10-01T10:30:03.269Z,84.42
2018-10-01T10:32:32.302Z,84.29
2018-10-01T10:35:01.266Z,84.62
2018-10-01T10:37:30.452Z,83.62
2018-10-01T10:39:59.829Z,84.10
2018-10-01T10:42:28.732Z,83.71
2018-10-01T10:44:57.719Z,84.01
2018-10-01T10:47:27.121Z,84.17
2018-10-01T10:49:56.352Z,84.60
2018-10-01T10:52:25.934Z,83.48
2018-10-01T10:54:55.271Z,82.85
2018-10-01T10:57:24.464Z,82.06
2018-10-01T10:59:53.343Z,81.64
2018-10-01T11:02:22.608Z,81.63
2018-10-01T11:04:51.795Z,81.11
2018-10-01T11:07:21.260Z,82.48
2018-10-01T11:09:50.495Z,82.03
2018-10-01T11:12:19.901Z,82.86
2018-10-01T11:14:49.389Z,82.61
2018-10-01T11:17:18.559Z,81.71
2018-10-01T11:19:47.559Z,81.40
2018-10-01T11:22:16.698Z,81.99
2018-10-01T11:24:45.915Z,81.28
2018-10-01T11:27:15.125Z,81.42
2018-10-01T11:29:44.389Z,81.89
2018-10-01T11:32:13.783Z,81.82
2018-10-01T11:34:43.962Z,82.17
2018-10-01T11:37:13.421Z,81.09
2018-10-01T11:39:42.776Z,81.32
2018-10-01T11:42:12.007Z,82.34
2018-10-01T11:44:41.304Z,81.61
2018-10-01T11:47:10.455Z,81.55
2018-10-01T11:49:39.500Z,81.17
2018-10-01T11:52:08.885Z,81.07
2018-10-01T11:54:38.075Z,80.22
2018-10-01T11:57:07.130Z,79.98
2018-10-01T11:59:36.139Z,80.32
2018-10-01T12:02:05.362Z,79.38
2018-10-01T12:04:34.775Z,79.94
2018-10-01T12:07:03.940Z,80.69
2018-10-01T12:09:33.154Z,81.22
2018-10-01T12:12:02.326Z,81.11
2018-10-01T12:14:31.475Z,81.46
2018-10-01T12:17:00.710Z,82.03
2018-10-01T12:19:29.688Z,80.61
2018-10-01T12:21:58.980Z,80.47
2018-10-01T12:24:28.141Z,78.98
2018-10-01T12:26:57.286Z,78.04
2018-10-01T12:29:26.528Z,78.63
2018-10-01T12:31:55.896Z,78.38
2018-10-01T12:34:24.988Z,77.24
2018-10-01T12:36:54.059Z,76.27
2018-10-01T12:39:23.006Z,72.50
2018-10-01T12:41:52.219Z,70.12
2018-10-01T12:44:21.362Z,70.19
2018-10-01T12:46:50.553Z,68.89
2018-10-01T12:49:19.543Z,67.90
2018-10-01T12:51:48.808Z,66.57
2018-10-01T12:54:17.948Z,67.31
2018-10-01T12:56:47.271Z,68.39
2018-10-01T12:59:16.398Z,68.52
2018-10-01T13:01:45.326Z,68.01
2018-10-01T13:04:14.694Z,68.45
2018-10-01T13:06:44.223Z,68.76
2018-10-01T13:09:13.904Z,69.35
2018-10-01T13:11:43.002Z,69.80
2018-10-01T13:14:11.987Z,69.51
2018-10-01T13:16:41.309Z,70.19
2018-10-01T13:19:10.683Z,70.79
2018-10-01T13:21:40.000Z,71.15
2018-10-01T13:24:09.452Z,70.98
2018-10-01T13:26:38.642Z,71.57
2018-10-01T13:29:07.938Z,71.41
2018-10-01T13:31:37.486Z,71.69
2018-10-01T13:34:06.703Z,72.61
2018-10-01T13:36:36.230Z,73.21
2018-10-01T13:39:07.023Z,73.25
2018-10-01T13:41:36.442Z,73.47
2018-10-01T13:44:05.682Z,74.39
2018-10-01T13:46:34.724Z,74.55
2018-10-01T13:49:04.100Z,74.22
2018-10-01T13:51:33.262Z,75.09
2018-10-01T13:54:02.772Z,74.45
2018-10-01T13:56:31.895Z,75.75
2018-10-01T13:59:01.263Z,75.21
2018-10-01T14:01:30.699Z,74.85
2018-10-01T14:03:59.961Z,75.22
2018-10-01T14:06:29.396Z,74.86
2018-10-01T14:08:58.558Z,75.67
2018-10-01T14:11:27.929Z,76.04
2018-10-01T14:13:57.272Z,75.39
2018-10-01T14:16:26.166Z,75.65
2018-10-01T14:18:55.428Z,76.55
2018-10-01T14:21:24.927Z,75.67
2018-10-01T14:23:54.164Z,76.14
2018-10-01T14:26:23.988Z,76.36
2018-10-01T14:28:53.166Z,76.56
2018-10-01T14:31:22.326Z,75.67
2018-10-01T14:33:51.623Z,76.23
2018-10-01T14:36:21.170Z,75.40
2018-10-01T14:38:50.374Z,76.19
2018-10-01T14:41:19.724Z,75.45
2018-10-01T14:43:49.147Z,75.84
2018-10-01T14:46:18.521Z,76.69
2018-10-01T14:48:47.770Z,76.16
2018-10-01T14:51:17.195Z,77.01
2018-10-01T14:53:46.512Z,76.50
2018-10-01T14:56:15.450Z,77.51
2018-10-01T14:58:44.846Z,77.50
2018-10-01T15:01:14.167Z,77.47
2018-10-01T15:03:43.509Z,77.52
2018-10-01T15:06:12.852Z,77.62
2018-10-01T15:08:41.897Z,77.77
2018-10-01T15:11:10.876Z,77.47
2018-10-01T15:13:40.116Z,77.51
2018-10-01T15:16:09.314Z,76.72
2018-10-01T15:18:38.608Z,77.03
2018-10-01T15:21:07.796Z,77.17
2018-10-01T15:23:37.035Z,78.12
2018-10-01T15:26:06.163Z,78.50
2018-10-01T15:28:35.427Z,78.81
2018-10-01T15:31:04.788Z,78.92
2018-10-01T15:33:34.235Z,78.38
2018-10-01T15:36:03.381Z,78.87
2018-10-01T15:38:32.477Z,78.97
2018-10-01T15:41:01.757Z,79.16
2018-10-01T15:43:31.126Z,79.20
2018-10-01T15:46:00.379Z,79.05
2018-10-01T15:48:29.613Z,79.33
2018-10-01T15:50:58.968Z,79.59
2018-10-01T15:53:28.221Z,80.31
2018-10-01T15:55:57.588Z,81.58
2018-10-01T15:58:26.940Z,81.72
2018-10-01T16:00:56.071Z,82.01
2018-10-01T16:03:25.427Z,81.17
2018-10-01T16:05:54.775Z,81.68
2018-10-01T16:08:24.055Z,82.08
2018-10-01T16:10:53.151Z,82.37
2018-10-01T16:13:22.453Z,82.67
2018-10-01T16:15:51.480Z,83.21
2018-10-01T16:18:20.708Z,83.09
2018-10-01T16:20:49.854Z,83.00
2018-10-01T16:23:19.092Z,82.36
2018-10-01T16:25:48.396Z,82.81
2018-10-01T16:28:17.322Z,82.64
2018-10-01T16:30:46.340Z,83.08
2018-10-01T16:33:15.396Z,83.07
2018-10-01T16:35:44.560Z,83.31
2018-10-01T16:38:13.614Z,83.07
2018-10-01T16:40:42.796Z,83.08
2018-10-01T16:43:12.055Z,82.91
2018-10-01T16:45:41.309Z,83.33
2018-10-01T16:48:10.709Z,83.28
2018-10-01T16:50:40.000Z,83.93
2018-10-01T16:53:09.739Z,83.91
2018-10-01T16:55:39.128Z,85.04
2018-10-01T16:58:08.139Z,85.68
2018-10-01T17:00:37.380Z,86.21
2018-10-01T17:03:06.602Z,86.64
2018-10-01T17:05:36.735Z,86.28
2018-10-01T17:08:06.127Z,87.10
2018-10-01T17:10:35.667Z,86.94
2018-10-01T17:13:05.029Z,86.95
2018-10-01T17:15:34.384Z,85.92
2018-10-01T17:18:03.608Z,84.86
2018-10-01T17:20:33.352Z,85.74
2018-10-01T17:23:06.516Z,86.06
2018-10-01T17:25:35.965Z,84.79
2018-10-01T17:28:05.149Z,85.80
2018-10-01T17:30:34.815Z,86.01
2018-10-01T17:33:04.958Z,86.38
2018-10-01T17:35:34.955Z,85.60
2018-10-01T17:38:04.312Z,85.63
2018-10-01T17:40:34.097Z,84.85
2018-10-01T17:43:03.056Z,85.05
2018-10-01T17:45:32.101Z,85.38
2018-10-01T17:48:01.368Z,85.78
2018-10-01T17:50:30.507Z,86.03
2018-10-01T17:53:00.831Z,85.92
2018-10-01T17:55:30.163Z,85.84
2018-10-01T17:57:59.492Z,86.18
2018-10-01T18:00:28.634Z,85.23
2018-10-01T18:02:59.234Z,85.95
2018-10-01T18:05:28.505Z,85.75
2018-10-01T18:07:57.723Z,86.06
2018-10-01T18:10:26.670Z,86.47
2018-10-01T18:12:55.837Z,86.95
2018-10-01T18:15:25.116Z,85.80
2018-10-01T18:17:55.565Z,85.96
2018-10-01T18:20:25.018Z,85.71
2018-10-01T18:22:54.087Z,86.33
2018-10-01T18:25:23.530Z,85.59
2018-10-01T18:27:52.484Z,85.94
2018-10-01T18:30:21.899Z,86.87
2018-10-01T18:32:50.991Z,87.13
2018-10-01T18:35:20.241Z,85.64
2018-10-01T18:37:49.643Z,86.50
2018-10-01T18:40:19.241Z,86.68
2018-10-01T18:42:48.557Z,86.69
2018-10-01T18:45:18.015Z,86.70
2018-10-01T18:47:48.497Z,87.00
2018-10-01T18:50:17.892Z,86.48
2018-10-01T18:52:47.044Z,86.55
2018-10-01T18:55:16.665Z,86.59
2018-10-01T18:57:46.002Z,86.91
2018-10-01T19:00:15.462Z,86.67
2018-10-01T19:02:45.111Z,86.96
2018-10-01T19:05:14.632Z,87.14
2018-10-01T19:07:45.193Z,87.13
2018-10-01T19:10:14.845Z,86.59
2018-10-01T19:12:43.880Z,87.04
2018-10-01T19:15:13.227Z,87.39
2018-10-01T19:17:42.276Z,86.58
2018-10-01T19:20:11.641Z,86.91
2018-10-01T19:22:41.112Z,86.79
2018-10-01T19:25:10.333Z,86.65
2018-10-01T19:27:39.603Z,87.15
2018-10-01T19:30:08.909Z,87.03
2018-10-01T19:32:38.180Z,86.96
2018-10-01T19:35:07.647Z,87.69
2018-10-01T19:37:36.765Z,87.08
2018-10-01T19:40:06.788Z,87.06
2018-10-01T19:42:36.279Z,86.61
2018-10-01T19:45:05.744Z,87.17
2018-10-01T19:47:35.239Z,87.15
2018-10-01T19:50:04.583Z,87.32
2018-10-01T19:52:33.895Z,87.76
2018-10-01T19:55:03.315Z,88.23
2018-10-01T19:57:32.303Z,87.25
2018-10-01T20:00:01.235Z,87.69
2018-10-01T20:02:30.710Z,87.73
2018-10-01T20:05:00.106Z,88.55
2018-10-01T20:07:29.355Z,88.57
2018-10-01T20:09:58.825Z,87.85
2018-10-01T20:12:28.124Z,88.24
2018-10-01T20:14:57.686Z,87.53
2018-10-01T20:17:26.948Z,86.99
2018-10-01T20:19:56.187Z,86.85
2018-10-01T20:22:25.293Z,87.21
2018-10-01T20:24:54.464Z,86.70
2018-10-01T20:27:23.743Z,86.70
2018-10-01T20:29:53.041Z,86.33
2018-10-01T20:32:22.424Z,86.35
2018-10-01T20:34:51.957Z,86.85
2018-10-01T20:37:20.907Z,86.82
2018-10-01T20:39:49.913Z,87.44
2018-10-01T20:42:19.000Z,87.57
2018-10-01T20:44:48.285Z,87.66
2018-10-01T20:47:17.614Z,87.53
2018-10-01T20:49:46.836Z,87.51
2018-10-01T20:52:16.287Z,87.46
2018-10-01T20:54:45.611Z,87.13
2018-10-01T20:57:15.095Z,87.23
2018-10-01T20:59:44.478Z,87.05
2018-10-01T21:02:13.874Z,86.25
2018-10-01T21:04:43.182Z,87.52
2018-10-01T21:07:12.480Z,88.24
2018-10-01T21:09:41.889Z,88.33
2018-10-01T21:12:11.219Z,88.10
2018-10-01T21:14:40.276Z,88.42
2018-10-01T21:17:09.150Z,88.91
2018-10-01T21:19:38.316Z,88.68
2018-10-01T21:22:07.620Z,88.92
2018-10-01T21:24:36.876Z,89.40
2018-10-01T21:27:06.343Z,89.08
2018-10-01T21:29:35.762Z,88.45
2018-10-01T21:32:04.760Z,89.05
2018-10-01T21:34:33.805Z,89.09
2018-10-01T21:37:02.798Z,88.81
2018-10-01T21:40:15.931Z,88.54
2018-10-01T21:42:45.276Z,88.41
2018-10-01T21:45:15.539Z,88.27
2018-10-01T21:47:44.598Z,88.29
2018-10-01T21:50:13.795Z,88.74
2018-10-01T21:52:43.024Z,88.84
2018-10-01T21:55:12.091Z,88.23
2018-10-01T21:57:41.463Z,88.22
2018-10-01T22:00:11.571Z,88.96
2018-10-01T22:02:40.735Z,89.14
2018-10-01T22:05:10.084Z,88.51
2018-10-01T22:07:39.431Z,89.04
2018-10-01T22:10:08.326Z,88.97
2018-10-01T22:12:37.474Z,88.68
2018-10-01T22:15:06.845Z,88.21
2018-10-01T22:17:36.117Z,88.71
2018-10-01T22:20:05.307Z,87.95
2018-10-01T22:22:34.724Z,87.82
2018-10-01T22:25:04.031Z,88.12
2018-10-01T22:27:33.011Z,88.34
2018-10-01T22:30:02.164Z,88.25
2018-10-01T22:32:31.229Z,88.38
2018-10-01T22:35:00.499Z,88.47
2018-10-01T22:37:29.694Z,88.39
2018-10-01T22:39:58.749Z,88.03
2018-10-01T22:42:28.170Z,88.97
2018-10-01T22:44:57.154Z,89.18
2018-10-01T22:47:26.492Z,88.79
2018-10-01T22:49:55.666Z,89.16
2018-10-01T22:52:25.132Z,89.34
2018-10-01T22:54:54.359Z,89.43
2018-10-01T22:57:23.556Z,89.45
2018-10-01T22:59:52.821Z,89.38
2018-10-01T23:02:21.967Z,90.08
2018-10-01T23:04:51.187Z,89.47
2018-10-01T23:07:20.585Z,89.08
2018-10-01T23:09:49.699Z,89.04
2018-10-01T23:12:18.916Z,89.55
2018-10-01T23:14:48.247Z,89.79
2018-10-01T23:17:17.510Z,88.70
2018-10-01T23:19:46.863Z,89.27
2018-10-01T23:22:15.922Z,88.32
2018-10-01T23:24:45.026Z,89.25
2018-10-01T23:27:14.164Z,88.80
2018-10-01T23:29:43.184Z,89.06
2018-10-01T23:32:12.176Z,89.43
2018-10-01T23:34:41.326Z,88.89
2018-10-01T23:37:10.567Z,89.24
2018-10-01T23:39:39.676Z,88.90
2018-10-01T23:42:08.954Z,88.35
2018-10-01T23:44:38.155Z,88.68
2018-10-01T23:47:07.410Z,88.63
2018-10-01T23:49:36.662Z,88.30
2018-10-01T23:52:05.595Z,88.22
2018-10-01T23:54:34.948Z,88.58
2018-10-01T23:57:04.137Z,88.48
2018-10-01T23:59:33.141Z,88.74
